createdAt,value
2022-11-05T00:00:27.579Z,1.50
2022-11-05T00:01:27.619Z,1.60
2022-11-05T00:02:27.552Z,1.30
2022-11-05T00:03:27.604Z,1.30
2022-11-05T00:04:30.873Z,1.30
2022-11-05T00:05:27.522Z,1.30
2022-11-05T00:06:27.524Z,1.60
2022-11-05T00:07:27.508Z,1.20
2022-11-05T00:08:27.487Z,1.40
2022-11-05T00:09:27.480Z,1.40
2022-11-05T00:10:27.469Z,1.80
2022-11-05T00:11:27.471Z,1.60
2022-11-05T00:12:27.449Z,1.40
2022-11-05T00:13:27.442Z,1.80
2022-11-05T00:14:27.432Z,2.40
2022-11-05T00:15:27.428Z,1.80
2022-11-05T00:16:27.418Z,1.70
2022-11-05T00:17:27.398Z,1.30
2022-11-05T00:18:27.387Z,1.50
2022-11-05T00:19:27.378Z,1.60
2022-11-05T00:20:27.375Z,1.80
2022-11-05T00:21:27.368Z,1.50
2022-11-05T00:22:27.340Z,1.40
2022-11-05T00:23:27.343Z,1.20
2022-11-05T00:24:27.319Z,1.50
2022-11-05T00:25:27.324Z,1.70
2022-11-05T00:26:27.309Z,1.80
2022-11-05T00:27:27.311Z,1.60
2022-11-05T00:28:27.278Z,1.30
2022-11-05T00:29:27.269Z,1.60
2022-11-05T00:30:27.257Z,1.70
2022-11-05T00:31:27.251Z,1.40
2022-11-05T00:32:27.239Z,1.20
2022-11-05T00:33:27.254Z,1.10
2022-11-05T00:34:27.215Z,1.70
2022-11-05T00:35:27.209Z,1.50
2022-11-05T00:36:27.194Z,1.30
2022-11-05T00:37:27.186Z,1.40
2022-11-05T00:38:27.173Z,1.60
2022-11-05T00:39:27.173Z,1.50
2022-11-05T00:40:27.151Z,1.60
2022-11-05T00:41:27.149Z,2.20
2022-11-05T00:42:27.129Z,1.10
2022-11-05T00:43:27.124Z,1.70
2022-11-05T00:44:27.118Z,1.80
2022-11-05T00:45:27.113Z,2.30
2022-11-05T00:46:27.115Z,2.00
2022-11-05T00:47:27.092Z,2.40
2022-11-05T00:48:27.077Z,3.60
2022-11-05T00:49:27.091Z,2.10
2022-11-05T00:50:27.056Z,2.80
2022-11-05T00:51:27.040Z,1.80
2022-11-05T00:52:27.028Z,2.00
2022-11-05T00:53:27.015Z,1.80
2022-11-05T00:54:27.023Z,2.10
2022-11-05T00:55:26.995Z,2.00
2022-11-05T00:56:26.984Z,1.90
2022-11-05T00:57:26.973Z,2.00
2022-11-05T00:58:26.968Z,1.90
2022-11-05T00:59:26.954Z,1.20
2022-11-05T01:00:26.955Z,1.70
2022-11-05T01:01:27.087Z,2.00
2022-11-05T01:02:27.049Z,1.70
2022-11-05T01:03:26.912Z,1.70
2022-11-05T01:04:26.907Z,1.70
2022-11-05T01:05:26.896Z,1.90
2022-11-05T01:06:26.877Z,1.80
2022-11-05T01:07:26.875Z,1.70
2022-11-05T01:08:26.856Z,2.00
2022-11-05T01:09:26.863Z,1.50
2022-11-05T01:10:26.839Z,1.70
2022-11-05T01:11:26.847Z,2.20
2022-11-05T01:12:26.816Z,2.00
2022-11-05T01:13:26.805Z,2.20
2022-11-05T01:14:26.793Z,2.40
2022-11-05T01:15:26.787Z,1.70
2022-11-05T01:16:26.770Z,2.60
2022-11-05T01:17:26.775Z,3.20
2022-11-05T01:18:26.751Z,2.10
2022-11-05T01:19:26.744Z,1.70
2022-11-05T01:20:26.733Z,1.80
2022-11-05T01:21:26.745Z,1.90
2022-11-05T01:22:26.708Z,1.60
2022-11-05T01:23:26.701Z,1.70
2022-11-05T01:24:26.689Z,1.50
2022-11-05T01:25:26.678Z,1.40
2022-11-05T01:26:26.668Z,1.80
2022-11-05T01:27:26.677Z,1.60
2022-11-05T01:28:26.675Z,1.40
2022-11-05T01:29:26.637Z,1.40
2022-11-05T01:30:26.627Z,1.60
2022-11-05T01:31:26.618Z,1.40
2022-11-05T01:32:26.628Z,1.40
2022-11-05T01:33:26.594Z,1.40
2022-11-05T01:34:26.583Z,2.30
2022-11-05T01:35:26.573Z,2.40
2022-11-05T01:36:26.572Z,1.80
2022-11-05T01:37:26.566Z,1.10
2022-11-05T01:38:26.543Z,1.30
2022-11-05T01:39:26.537Z,1.30
2022-11-05T01:40:26.519Z,2.20
2022-11-05T01:41:26.513Z,1.40
2022-11-05T01:42:26.500Z,1.70
2022-11-05T01:43:26.512Z,1.70
2022-11-05T01:44:26.477Z,1.20
2022-11-05T01:45:26.492Z,1.50
2022-11-05T01:46:26.458Z,1.30
2022-11-05T01:47:26.447Z,1.80
2022-11-05T01:48:26.434Z,1.60
2022-11-05T01:49:26.443Z,1.60
2022-11-05T01:50:26.421Z,1.80
2022-11-05T01:51:26.410Z,1.30
2022-11-05T01:52:26.394Z,1.40
2022-11-05T01:53:26.395Z,1.10
2022-11-05T01:54:26.374Z,2.00
2022-11-05T01:55:26.368Z,1.00
2022-11-05T01:56:26.352Z,1.60
2022-11-05T01:57:26.344Z,0.90
2022-11-05T01:58:26.327Z,1.00
2022-11-05T01:59:26.328Z,1.60
2022-11-05T02:00:26.318Z,1.70
2022-11-05T02:01:26.451Z,1.40
2022-11-05T02:02:26.396Z,2.00
2022-11-05T02:03:26.279Z,1.40
2022-11-05T02:04:26.266Z,0.90
2022-11-05T02:05:26.270Z,1.30
2022-11-05T02:06:26.247Z,1.50
2022-11-05T02:07:26.244Z,1.90
2022-11-05T02:08:26.225Z,1.80
2022-11-05T02:09:26.217Z,1.70
2022-11-05T02:10:26.214Z,1.30
2022-11-05T02:11:26.207Z,1.60
2022-11-05T02:12:26.195Z,2.10
2022-11-05T02:13:26.175Z,1.70
2022-11-05T02:14:26.170Z,1.70
2022-11-05T02:15:26.152Z,1.10
2022-11-05T02:16:26.140Z,1.40
2022-11-05T02:17:26.150Z,1.50
2022-11-05T02:18:26.139Z,1.20
2022-11-05T02:19:26.110Z,1.70
2022-11-05T02:20:26.098Z,1.70
2022-11-05T02:21:26.093Z,1.30
2022-11-05T02:22:26.078Z,1.60
2022-11-05T02:23:26.081Z,1.50
2022-11-05T02:24:26.056Z,1.70
2022-11-05T02:25:26.052Z,1.30
2022-11-05T02:26:26.034Z,1.60
2022-11-05T02:27:26.051Z,1.80
2022-11-05T02:28:26.013Z,1.70
2022-11-05T02:29:26.005Z,1.30
2022-11-05T02:30:25.989Z,2.00
2022-11-05T02:31:25.986Z,1.50
2022-11-05T02:32:25.973Z,1.50
2022-11-05T02:33:25.979Z,1.10
2022-11-05T02:34:25.952Z,1.30
2022-11-05T02:35:25.953Z,1.40
2022-11-05T02:36:25.931Z,1.40
2022-11-05T02:37:25.921Z,1.50
2022-11-05T02:38:25.920Z,1.30
2022-11-05T02:39:25.900Z,1.40
2022-11-05T02:40:25.899Z,1.20
2022-11-05T02:41:25.883Z,1.60
2022-11-05T02:42:25.862Z,1.40
2022-11-05T02:43:25.855Z,1.20
2022-11-05T02:44:25.929Z,1.40
2022-11-05T02:45:25.838Z,1.60
2022-11-05T02:46:25.824Z,1.30
2022-11-05T02:47:25.819Z,1.70
2022-11-05T02:48:25.803Z,1.10
2022-11-05T02:49:25.807Z,1.70
2022-11-05T02:50:25.781Z,1.30
2022-11-05T02:51:25.774Z,1.30
2022-11-05T02:52:25.759Z,0.90
2022-11-05T02:53:25.755Z,1.40
2022-11-05T02:54:25.752Z,1.00
2022-11-05T02:55:25.734Z,1.90
2022-11-05T02:56:25.729Z,1.60
2022-11-05T02:57:25.728Z,1.70
2022-11-05T02:58:25.695Z,1.50
2022-11-05T02:59:25.698Z,1.20
2022-11-05T03:00:25.694Z,1.40
2022-11-05T03:01:25.770Z,1.70
2022-11-05T03:02:25.895Z,1.60
2022-11-05T03:03:25.647Z,1.10
2022-11-05T03:04:25.641Z,1.40
2022-11-05T03:05:25.627Z,1.00
2022-11-05T03:06:25.630Z,1.30
2022-11-05T03:07:25.609Z,1.40
2022-11-05T03:08:25.596Z,1.60
2022-11-05T03:09:25.585Z,1.30
2022-11-05T03:10:25.568Z,1.10
2022-11-05T03:11:25.574Z,1.30
2022-11-05T03:12:25.565Z,1.20
2022-11-05T03:13:25.542Z,1.60
2022-11-05T03:14:25.532Z,1.40
2022-11-05T03:15:25.522Z,1.10
2022-11-05T03:16:25.521Z,1.00
2022-11-05T03:17:25.499Z,1.20
2022-11-05T03:18:25.496Z,1.40
2022-11-05T03:19:25.481Z,1.40
2022-11-05T03:20:25.469Z,1.20
2022-11-05T03:21:25.458Z,1.90
2022-11-05T03:22:25.441Z,1.70
2022-11-05T03:23:25.445Z,1.20
2022-11-05T03:24:25.422Z,1.90
2022-11-05T03:25:25.416Z,1.70
2022-11-05T03:26:25.402Z,1.50
2022-11-05T03:27:25.396Z,1.30
2022-11-05T03:28:25.409Z,1.30
2022-11-05T03:29:25.412Z,2.10
2022-11-05T03:30:25.364Z,1.50
2022-11-05T03:31:25.351Z,1.70
2022-11-05T03:32:25.337Z,1.40
2022-11-05T03:33:25.334Z,1.30
2022-11-05T03:34:25.331Z,1.10
2022-11-05T03:35:25.310Z,1.10
2022-11-05T03:36:25.294Z,1.30
2022-11-05T03:37:25.299Z,1.80
2022-11-05T03:38:25.275Z,1.10
2022-11-05T03:39:25.266Z,1.70
2022-11-05T03:40:25.264Z,2.00
2022-11-05T03:41:25.245Z,1.40
2022-11-05T03:42:25.235Z,1.20
2022-11-05T03:43:25.222Z,1.20
2022-11-05T03:44:25.215Z,1.30
2022-11-05T03:45:25.208Z,1.50
2022-11-05T03:46:25.194Z,1.30
2022-11-05T03:47:25.189Z,1.50
2022-11-05T03:48:25.247Z,1.40
2022-11-05T03:49:25.165Z,1.90
2022-11-05T03:50:25.172Z,1.30
2022-11-05T03:51:25.135Z,1.60
2022-11-05T03:52:25.132Z,2.30
2022-11-05T03:53:25.120Z,2.10
2022-11-05T03:54:25.119Z,1.70
2022-11-05T03:55:25.116Z,1.70
2022-11-05T03:56:25.092Z,1.40
2022-11-05T03:57:25.079Z,1.50
2022-11-05T03:58:25.074Z,1.30
2022-11-05T03:59:25.061Z,2.20
2022-11-05T04:00:25.069Z,1.80
2022-11-05T04:01:25.089Z,1.50
2022-11-05T04:02:25.160Z,1.30
2022-11-05T04:03:25.019Z,1.50
2022-11-05T04:04:25.004Z,1.40
2022-11-05T04:05:24.988Z,1.70
2022-11-05T04:06:24.987Z,1.70
2022-11-05T04:07:24.981Z,1.30
2022-11-05T04:08:24.965Z,1.40
2022-11-05T04:09:24.949Z,1.30
2022-11-05T04:10:24.939Z,1.60
2022-11-05T04:11:24.929Z,1.10
2022-11-05T04:12:24.930Z,1.20
2022-11-05T04:13:24.904Z,1.70
2022-11-05T04:14:24.896Z,1.10
2022-11-05T04:15:24.886Z,1.30
2022-11-05T04:16:24.878Z,1.40
2022-11-05T04:17:24.877Z,1.20
2022-11-05T04:18:24.863Z,1.40
2022-11-05T04:19:26.268Z,1.70
2022-11-05T04:20:24.844Z,1.50
2022-11-05T04:21:24.821Z,1.20
2022-11-05T04:22:24.815Z,1.20
2022-11-05T04:23:24.814Z,1.10
2022-11-05T04:24:24.791Z,1.10
2022-11-05T04:25:24.781Z,1.50
2022-11-05T04:26:24.776Z,1.30
2022-11-05T04:27:24.757Z,1.40
2022-11-05T04:28:24.763Z,1.60
2022-11-05T04:29:24.735Z,1.70
2022-11-05T04:30:24.728Z,1.20
2022-11-05T04:31:24.722Z,1.70
2022-11-05T04:32:24.710Z,1.50
2022-11-05T04:33:24.692Z,1.30
2022-11-05T04:34:24.698Z,1.30
2022-11-05T04:35:24.680Z,1.30
2022-11-05T04:36:24.665Z,1.20
2022-11-05T04:37:24.652Z,1.80
2022-11-05T04:38:24.658Z,1.20
2022-11-05T04:39:24.630Z,1.20
2022-11-05T04:40:24.632Z,1.40
2022-11-05T04:41:24.609Z,1.70
2022-11-05T04:42:24.603Z,1.30
2022-11-05T04:43:24.593Z,1.50
2022-11-05T04:44:24.590Z,1.10
2022-11-05T04:45:24.567Z,1.80
2022-11-05T04:46:24.560Z,1.40
2022-11-05T04:47:24.546Z,1.00
2022-11-05T04:48:24.540Z,1.80
2022-11-05T04:49:24.546Z,1.50
2022-11-05T04:50:24.525Z,1.40
2022-11-05T04:51:24.504Z,1.80
2022-11-05T04:52:24.497Z,1.80
2022-11-05T04:53:24.490Z,1.20
2022-11-05T04:54:24.473Z,1.60
2022-11-05T04:55:24.471Z,1.80
2022-11-05T04:56:24.457Z,1.70
2022-11-05T04:57:24.447Z,1.70
2022-11-05T04:58:24.432Z,1.60
2022-11-05T04:59:24.422Z,1.30
2022-11-05T05:00:24.429Z,1.50
2022-11-05T05:01:24.495Z,1.80
2022-11-05T05:02:24.395Z,1.80
2022-11-05T05:03:24.383Z,1.70
2022-11-05T05:04:24.368Z,1.50
2022-11-05T05:05:24.367Z,1.60
2022-11-05T05:06:24.357Z,1.80
2022-11-05T05:07:24.338Z,1.90
2022-11-05T05:08:24.333Z,1.50
2022-11-05T05:09:24.316Z,1.50
2022-11-05T05:10:24.307Z,1.60
2022-11-05T05:11:24.293Z,1.70
2022-11-05T05:12:24.295Z,1.60
2022-11-05T05:13:24.272Z,1.60
2022-11-05T05:14:24.262Z,2.50
2022-11-05T05:15:24.258Z,1.60
2022-11-05T05:16:24.244Z,1.50
2022-11-05T05:17:24.239Z,1.20
2022-11-05T05:18:24.242Z,1.60
2022-11-05T05:19:24.210Z,1.60
2022-11-05T05:20:24.212Z,1.30
2022-11-05T05:21:24.188Z,1.20
2022-11-05T05:22:24.200Z,1.80
2022-11-05T05:23:24.167Z,1.90
2022-11-05T05:24:24.174Z,1.50
2022-11-05T05:25:24.148Z,1.40
2022-11-05T05:26:24.219Z,1.50
2022-11-05T05:27:24.128Z,1.70
2022-11-05T05:28:24.114Z,1.10
2022-11-05T05:29:24.109Z,1.90
2022-11-05T05:30:24.112Z,1.00
2022-11-05T05:31:24.084Z,1.20
2022-11-05T05:32:24.082Z,1.30
2022-11-05T05:33:24.080Z,1.00
2022-11-05T05:34:24.056Z,1.10
2022-11-05T05:35:24.043Z,1.40
2022-11-05T05:36:24.037Z,1.50
2022-11-05T05:37:24.022Z,1.30
2022-11-05T05:38:24.010Z,1.00
2022-11-05T05:39:24.005Z,1.80
2022-11-05T05:40:23.988Z,2.20
2022-11-05T05:41:23.985Z,1.40
2022-11-05T05:42:23.971Z,1.30
2022-11-05T05:43:23.953Z,1.60
2022-11-05T05:44:23.958Z,1.90
2022-11-05T05:45:23.937Z,1.70
2022-11-05T05:46:23.928Z,1.40
2022-11-05T05:47:23.919Z,2.30
2022-11-05T05:48:23.906Z,1.10
2022-11-05T05:49:23.849Z,1.40
2022-11-05T05:50:23.883Z,1.40
2022-11-05T05:51:23.873Z,1.90
2022-11-05T05:52:23.865Z,1.70
2022-11-05T05:53:23.806Z,1.60
2022-11-05T05:54:27.696Z,1.90
2022-11-05T05:55:23.790Z,2.20
2022-11-05T05:56:23.825Z,1.80
2022-11-05T05:57:23.809Z,1.70
2022-11-05T05:58:23.756Z,1.40
2022-11-05T05:59:23.734Z,1.50
2022-11-05T06:00:23.766Z,1.60
2022-11-05T06:01:23.774Z,2.10
2022-11-05T06:02:23.877Z,1.80
2022-11-05T06:03:23.748Z,1.50
2022-11-05T06:04:23.699Z,1.50
2022-11-05T06:05:23.671Z,1.90
2022-11-05T06:06:23.703Z,1.70
2022-11-05T06:07:23.668Z,1.80
2022-11-05T06:08:23.643Z,3.20
2022-11-05T06:09:23.631Z,3.30
2022-11-05T06:10:23.641Z,2.70
2022-11-05T06:11:23.617Z,2.10
2022-11-05T06:12:23.599Z,1.90
2022-11-05T06:13:23.588Z,1.80
2022-11-05T06:14:23.579Z,1.50
2022-11-05T06:15:23.576Z,2.40
2022-11-05T06:16:23.561Z,1.90
2022-11-05T06:17:23.563Z,1.80
2022-11-05T06:18:23.539Z,1.50
2022-11-05T06:19:23.526Z,2.00
2022-11-05T06:20:23.533Z,1.60
2022-11-05T06:21:23.502Z,2.10
2022-11-05T06:22:23.492Z,2.00
2022-11-05T06:23:23.498Z,2.00
2022-11-05T06:24:23.474Z,1.80
2022-11-05T06:25:23.460Z,2.30
2022-11-05T06:26:23.452Z,1.60
2022-11-05T06:27:23.452Z,1.80
2022-11-05T06:28:23.428Z,1.90
2022-11-05T06:29:23.433Z,2.30
2022-11-05T06:30:23.412Z,1.70
2022-11-05T06:31:23.395Z,2.10
2022-11-05T06:32:23.389Z,2.90
2022-11-05T06:33:23.375Z,2.00
2022-11-05T06:34:23.381Z,2.10
2022-11-05T06:35:23.354Z,2.00
2022-11-05T06:36:23.348Z,2.10
2022-11-05T06:37:23.330Z,1.60
2022-11-05T06:38:23.328Z,2.30
2022-11-05T06:39:23.323Z,2.10
2022-11-05T06:40:23.304Z,1.50
2022-11-05T06:41:23.288Z,1.60
2022-11-05T06:42:23.282Z,2.10
2022-11-05T06:43:23.282Z,1.70
2022-11-05T06:44:23.260Z,2.80
2022-11-05T06:45:23.249Z,2.10
2022-11-05T06:46:23.243Z,1.70
2022-11-05T06:47:23.227Z,1.90
2022-11-05T06:48:23.224Z,2.40
2022-11-05T06:49:23.226Z,2.00
2022-11-05T06:50:23.198Z,2.20
2022-11-05T06:51:23.189Z,2.20
2022-11-05T06:52:23.175Z,2.80
2022-11-05T06:53:23.170Z,2.10
2022-11-05T06:54:23.174Z,1.80
2022-11-05T06:55:23.171Z,2.00
2022-11-05T06:56:23.134Z,2.30
2022-11-05T06:57:23.128Z,2.20
2022-11-05T06:58:23.115Z,2.00
2022-11-05T06:59:23.100Z,2.10
2022-11-05T07:00:23.118Z,2.10
2022-11-05T07:01:23.173Z,2.90
2022-11-05T07:02:23.106Z,2.70
2022-11-05T07:03:23.057Z,2.50
2022-11-05T07:04:23.048Z,2.20
2022-11-05T07:05:23.052Z,2.40
2022-11-05T07:06:23.028Z,3.00
2022-11-05T07:07:23.014Z,2.30
2022-11-05T07:08:23.008Z,1.70
2022-11-05T07:09:22.996Z,2.50
2022-11-05T07:10:23.001Z,2.10
2022-11-05T07:11:22.990Z,2.40
2022-11-05T07:12:22.969Z,2.50
2022-11-05T07:13:22.950Z,3.00
2022-11-05T07:14:22.942Z,2.30
2022-11-05T07:15:22.942Z,2.00
2022-11-05T07:16:22.946Z,3.90
2022-11-05T07:17:22.911Z,2.60
2022-11-05T07:18:22.902Z,4.10
2022-11-05T07:19:22.923Z,3.10
2022-11-05T07:20:22.880Z,2.70
2022-11-05T07:21:22.894Z,2.50
2022-11-05T07:22:22.868Z,2.40
2022-11-05T07:23:22.854Z,2.30
2022-11-05T07:24:22.840Z,2.00
2022-11-05T07:25:22.823Z,2.70
2022-11-05T07:26:22.857Z,2.50
2022-11-05T07:27:22.807Z,2.30
2022-11-05T07:28:22.810Z,2.50
2022-11-05T07:29:22.785Z,1.80
2022-11-05T07:30:22.775Z,2.00
2022-11-05T07:31:22.777Z,2.20
2022-11-05T07:32:22.755Z,2.30
2022-11-05T07:33:22.745Z,2.50
2022-11-05T07:34:22.752Z,2.30
2022-11-05T07:35:22.721Z,3.00
2022-11-05T07:36:22.713Z,2.10
2022-11-05T07:37:22.697Z,2.10
2022-11-05T07:38:22.689Z,2.20
2022-11-05T07:39:22.700Z,1.90
2022-11-05T07:40:22.679Z,2.30
2022-11-05T07:41:22.655Z,2.00
2022-11-05T07:42:22.648Z,2.60
2022-11-05T07:43:22.635Z,2.30
2022-11-05T07:44:22.628Z,2.10
2022-11-05T07:45:22.625Z,2.00
2022-11-05T07:46:22.610Z,2.50
2022-11-05T07:47:22.590Z,3.20
2022-11-05T07:48:22.585Z,2.50
2022-11-05T07:49:22.589Z,2.30
2022-11-05T07:50:22.572Z,2.70
2022-11-05T07:51:22.549Z,2.20
2022-11-05T07:52:22.549Z,2.60
2022-11-05T07:53:22.528Z,2.80
2022-11-05T07:54:22.523Z,1.90
2022-11-05T07:55:22.519Z,2.40
2022-11-05T07:56:22.501Z,3.50
2022-11-05T07:57:22.492Z,2.70
2022-11-05T07:58:22.477Z,2.60
2022-11-05T07:59:22.470Z,2.80
2022-11-05T08:00:22.464Z,1.90
2022-11-05T08:01:22.596Z,2.20
2022-11-05T08:02:22.607Z,3.30
2022-11-05T08:03:22.624Z,2.80
2022-11-05T08:04:22.414Z,2.90
2022-11-05T08:05:22.419Z,2.70
2022-11-05T08:06:22.391Z,2.60
2022-11-05T08:07:22.393Z,3.30
2022-11-05T08:08:22.372Z,2.80
2022-11-05T08:09:22.365Z,3.00
2022-11-05T08:10:22.351Z,2.90
2022-11-05T08:11:22.342Z,2.90
2022-11-05T08:12:22.341Z,2.40
2022-11-05T08:13:22.323Z,2.90
2022-11-05T08:14:22.312Z,2.80
2022-11-05T08:15:22.298Z,2.50
2022-11-05T08:16:22.284Z,2.50
2022-11-05T08:17:22.288Z,2.70
2022-11-05T08:18:22.263Z,3.30
2022-11-05T08:19:22.305Z,3.20
2022-11-05T08:20:22.244Z,2.70
2022-11-05T08:21:22.236Z,2.60
2022-11-05T08:22:22.238Z,3.00
2022-11-05T08:23:22.228Z,2.90
2022-11-05T08:24:22.248Z,3.20
2022-11-05T08:25:22.196Z,3.90
2022-11-05T08:26:22.184Z,3.30
2022-11-05T08:27:22.173Z,4.00
2022-11-05T08:28:22.160Z,3.00
2022-11-05T08:29:22.160Z,4.00
2022-11-05T08:30:22.137Z,3.70
2022-11-05T08:31:22.135Z,3.30
2022-11-05T08:32:22.130Z,3.10
2022-11-05T08:33:22.125Z,2.70
2022-11-05T08:34:22.101Z,3.00
2022-11-05T08:35:22.098Z,3.40
2022-11-05T08:36:22.075Z,3.50
2022-11-05T08:37:22.067Z,3.10
2022-11-05T08:38:22.110Z,3.40
2022-11-05T08:39:22.060Z,2.90
2022-11-05T08:40:22.032Z,2.40
2022-11-05T08:41:22.024Z,4.00
2022-11-05T08:42:22.010Z,2.00
2022-11-05T08:43:22.005Z,2.60
2022-11-05T08:44:21.997Z,2.90
2022-11-05T08:45:21.979Z,2.70
2022-11-05T08:46:21.969Z,2.90
2022-11-05T08:47:21.958Z,4.00
2022-11-05T08:48:21.957Z,3.00
2022-11-05T08:49:21.972Z,3.60
2022-11-05T08:50:21.926Z,3.90
2022-11-05T08:51:21.917Z,2.70
2022-11-05T08:52:21.905Z,2.80
2022-11-05T08:53:21.913Z,3.20
2022-11-05T08:54:21.897Z,3.50
2022-11-05T08:55:21.878Z,2.90
2022-11-05T08:56:21.868Z,2.60
2022-11-05T08:57:21.852Z,2.30
2022-11-05T08:58:21.854Z,2.70
2022-11-05T08:59:21.923Z,3.10
2022-11-05T09:00:21.831Z,3.10
2022-11-05T09:01:21.915Z,3.00
2022-11-05T09:02:21.977Z,3.30
2022-11-05T09:03:21.790Z,2.50
2022-11-05T09:04:21.775Z,2.70
2022-11-05T09:05:21.781Z,2.70
2022-11-05T09:06:21.770Z,3.20
2022-11-05T09:07:21.746Z,2.40
2022-11-05T09:08:21.734Z,3.10
2022-11-05T09:09:22.718Z,4.00
2022-11-05T09:10:21.710Z,3.00
2022-11-05T09:11:21.711Z,3.00
2022-11-05T09:12:21.701Z,2.90
2022-11-05T09:13:22.109Z,3.20
2022-11-05T09:14:21.669Z,3.90
2022-11-05T09:15:21.671Z,3.50
2022-11-05T09:16:21.658Z,3.00
2022-11-05T09:17:21.646Z,3.00
2022-11-05T09:18:21.634Z,2.90
2022-11-05T09:19:21.621Z,3.00
2022-11-05T09:20:21.605Z,3.20
2022-11-05T09:21:21.598Z,2.60
2022-11-05T09:22:21.601Z,2.90
2022-11-05T09:23:21.579Z,3.20
2022-11-05T09:24:21.571Z,2.10
2022-11-05T09:25:21.551Z,3.30
2022-11-05T09:26:21.549Z,3.50
2022-11-05T09:27:21.547Z,2.70
2022-11-05T09:28:21.553Z,2.80
2022-11-05T09:29:21.514Z,2.60
2022-11-05T09:30:21.498Z,3.10
2022-11-05T09:31:21.492Z,2.10
2022-11-05T09:32:21.477Z,3.00
2022-11-05T09:33:21.480Z,2.40
2022-11-05T09:34:21.455Z,2.50
2022-11-05T09:35:21.480Z,3.30
2022-11-05T09:36:21.435Z,2.60
2022-11-05T09:37:21.423Z,2.40
2022-11-05T09:38:21.424Z,2.70
2022-11-05T09:39:21.429Z,2.10
2022-11-05T09:40:21.415Z,3.40
2022-11-05T09:41:21.396Z,2.40
2022-11-05T09:42:21.372Z,2.80
2022-11-05T09:43:21.365Z,2.70
2022-11-05T09:44:21.346Z,2.50
2022-11-05T09:45:21.362Z,3.20
2022-11-05T09:46:21.328Z,2.50
2022-11-05T09:47:21.316Z,2.50
2022-11-05T09:48:21.304Z,2.50
2022-11-05T09:49:21.314Z,2.60
2022-11-05T09:50:21.286Z,3.20
2022-11-05T09:51:24.049Z,2.90
2022-11-05T09:52:21.262Z,2.90
2022-11-05T09:53:21.258Z,2.30
2022-11-05T09:54:21.266Z,3.00
2022-11-05T09:55:21.234Z,2.40
2022-11-05T09:56:21.218Z,2.80
2022-11-05T09:57:21.212Z,3.00
2022-11-05T09:58:24.517Z,2.70
2022-11-05T09:59:21.196Z,3.10
2022-11-05T10:00:21.284Z,3.60
2022-11-05T10:01:21.288Z,2.70
2022-11-05T10:02:21.192Z,1.90
2022-11-05T10:03:21.146Z,2.70
2022-11-05T10:04:21.133Z,2.80
2022-11-05T10:05:21.147Z,2.30
2022-11-05T10:06:21.120Z,2.70
2022-11-05T10:07:21.105Z,2.80
2022-11-05T10:08:21.094Z,3.50
2022-11-05T10:09:21.089Z,2.60
2022-11-05T10:10:21.104Z,3.20
2022-11-05T10:11:21.075Z,2.80
2022-11-05T10:12:21.049Z,3.30
2022-11-05T10:13:21.046Z,3.50
2022-11-05T10:14:21.044Z,3.20
2022-11-05T10:15:21.019Z,3.50
2022-11-05T10:16:21.013Z,2.60
2022-11-05T10:17:21.005Z,3.30
2022-11-05T10:18:20.981Z,3.70
2022-11-05T10:19:20.989Z,3.00
2022-11-05T10:20:20.995Z,3.40
2022-11-05T10:21:37.720Z,3.00
2022-11-05T10:22:20.956Z,3.20
2022-11-05T10:23:20.945Z,3.50
2022-11-05T10:24:20.920Z,3.00
2022-11-05T10:25:20.913Z,3.50
2022-11-05T10:26:20.899Z,3.50
2022-11-05T10:27:20.912Z,3.00
2022-11-05T10:28:20.888Z,3.90
2022-11-05T10:29:20.870Z,3.60
2022-11-05T10:30:20.867Z,2.90
2022-11-05T10:31:20.868Z,3.10
2022-11-05T10:32:20.835Z,2.70
2022-11-05T10:33:20.834Z,2.70
2022-11-05T10:34:20.813Z,2.60
2022-11-05T10:35:20.807Z,2.00
2022-11-05T10:36:20.793Z,3.10
2022-11-05T10:37:20.785Z,4.00
2022-11-05T10:38:20.778Z,3.20
2022-11-05T10:39:20.768Z,3.50
2022-11-05T10:40:20.748Z,2.60
2022-11-05T10:41:20.747Z,2.70
2022-11-05T10:42:20.730Z,2.80
2022-11-05T10:43:20.810Z,2.70
2022-11-05T10:44:20.717Z,3.20
2022-11-05T10:45:20.737Z,3.20
2022-11-05T10:46:20.710Z,3.00
2022-11-05T10:47:20.708Z,2.60
2022-11-05T10:48:20.712Z,3.10
2022-11-05T10:49:20.736Z,2.70
2022-11-05T10:50:20.724Z,3.00
2022-11-05T10:51:20.711Z,2.50
2022-11-05T10:52:20.708Z,3.20
2022-11-05T10:53:20.725Z,2.80
2022-11-05T10:54:20.736Z,2.80
2022-11-05T10:55:20.720Z,2.40
2022-11-05T10:56:20.698Z,2.30
2022-11-05T10:57:20.711Z,2.70
2022-11-05T10:58:20.720Z,3.00
2022-11-05T10:59:20.709Z,2.20
2022-11-05T11:00:20.717Z,3.10
2022-11-05T11:01:20.714Z,3.10
2022-11-05T11:02:20.727Z,2.80
2022-11-05T11:03:20.507Z,2.30
2022-11-05T11:04:20.495Z,2.50
2022-11-05T11:05:20.485Z,2.70
2022-11-05T11:06:20.488Z,2.30
2022-11-05T11:07:20.474Z,2.10
2022-11-05T11:08:20.455Z,2.70
2022-11-05T11:09:20.449Z,2.60
2022-11-05T11:10:20.441Z,2.50
2022-11-05T11:11:20.425Z,3.10
2022-11-05T11:12:20.422Z,3.40
2022-11-05T11:13:20.403Z,2.90
2022-11-05T11:14:20.397Z,3.10
2022-11-05T11:15:20.381Z,3.20
2022-11-05T11:16:20.380Z,2.50
2022-11-05T11:17:20.362Z,2.70
2022-11-05T11:18:20.347Z,2.50
2022-11-05T11:19:20.340Z,3.80
2022-11-05T11:20:20.359Z,3.20
2022-11-05T11:21:20.325Z,2.80
2022-11-05T11:22:20.312Z,2.50
2022-11-05T11:23:20.297Z,2.60
2022-11-05T11:24:20.282Z,3.20
2022-11-05T11:25:20.274Z,3.30
2022-11-05T11:26:20.262Z,3.60
2022-11-05T11:27:20.273Z,2.60
2022-11-05T11:28:20.240Z,2.80
2022-11-05T11:29:20.236Z,3.60
2022-11-05T11:30:20.235Z,3.00
2022-11-05T11:31:20.222Z,2.60
2022-11-05T11:32:20.208Z,2.70
2022-11-05T11:33:20.205Z,2.70
2022-11-05T11:34:20.189Z,3.30
2022-11-05T11:35:20.172Z,2.40
2022-11-05T11:36:20.168Z,3.90
2022-11-05T11:37:20.159Z,2.90
2022-11-05T11:38:20.154Z,3.20
2022-11-05T11:39:20.135Z,3.60
2022-11-05T11:40:20.127Z,3.00
2022-11-05T11:41:20.108Z,3.30
2022-11-05T11:42:20.101Z,3.20
2022-11-05T11:43:20.099Z,2.70
2022-11-05T11:44:20.082Z,2.70
2022-11-05T11:45:20.069Z,2.40
2022-11-05T11:46:20.055Z,3.30
2022-11-05T11:47:20.064Z,3.40
2022-11-05T11:48:20.059Z,3.50
2022-11-05T11:49:20.025Z,2.90
2022-11-05T11:50:20.022Z,2.90
2022-11-05T11:51:20.006Z,3.20
2022-11-05T11:52:20.040Z,3.10
2022-11-05T11:53:19.985Z,2.90
2022-11-05T11:54:19.991Z,3.30
2022-11-05T11:55:20.257Z,3.10
2022-11-05T11:56:19.979Z,2.80
2022-11-05T11:57:19.962Z,3.10
2022-11-05T11:58:19.951Z,2.90
2022-11-05T11:59:19.923Z,2.90
2022-11-05T12:00:19.944Z,1.90
2022-11-05T12:01:19.930Z,2.50
2022-11-05T12:02:20.030Z,2.90
2022-11-05T12:03:20.375Z,2.10
2022-11-05T12:04:19.868Z,3.60
2022-11-05T12:05:19.861Z,3.10
2022-11-05T12:06:19.859Z,2.80
2022-11-05T12:07:19.860Z,2.60
2022-11-05T12:08:19.821Z,2.90
2022-11-05T12:09:19.816Z,2.60
2022-11-05T12:10:19.807Z,2.90
2022-11-05T12:11:19.801Z,2.60
2022-11-05T12:12:19.785Z,3.30
2022-11-05T12:13:19.770Z,2.90
2022-11-05T12:14:19.764Z,2.50
2022-11-05T12:15:19.749Z,2.20
2022-11-05T12:16:19.770Z,2.00
2022-11-05T12:17:19.738Z,3.20
2022-11-05T12:18:19.741Z,2.60
2022-11-05T12:19:19.729Z,2.90
2022-11-05T12:20:19.709Z,3.20
2022-11-05T12:21:40.726Z,2.80
2022-11-05T12:22:19.731Z,2.90
2022-11-05T12:23:19.666Z,2.70
2022-11-05T12:24:19.656Z,2.40
2022-11-05T12:25:19.645Z,2.70
2022-11-05T12:26:19.635Z,2.40
2022-11-05T12:27:19.668Z,2.40
2022-11-05T12:28:19.620Z,2.30
2022-11-05T12:29:19.767Z,2.80
2022-11-05T12:30:19.596Z,2.90
2022-11-05T12:31:19.609Z,2.70
2022-11-05T12:32:19.653Z,2.90
2022-11-05T12:33:19.559Z,2.40
2022-11-05T12:34:19.568Z,2.60
2022-11-05T12:35:19.540Z,2.70
2022-11-05T12:36:19.528Z,2.90
2022-11-05T12:37:19.519Z,2.50
2022-11-05T12:38:19.516Z,2.20
2022-11-05T12:39:19.493Z,2.80
2022-11-05T12:40:19.493Z,2.30
2022-11-05T12:41:19.475Z,2.80
2022-11-05T12:42:19.464Z,2.80
2022-11-05T12:43:19.463Z,2.20
2022-11-05T12:44:19.446Z,2.30
2022-11-05T12:45:19.431Z,2.70
2022-11-05T12:46:19.429Z,2.60
2022-11-05T12:47:19.412Z,2.70
2022-11-05T12:48:23.357Z,2.30
2022-11-05T12:49:19.397Z,2.20
2022-11-05T12:50:19.384Z,2.50
2022-11-05T12:51:19.373Z,2.40
2022-11-05T12:52:19.363Z,3.00
2022-11-05T12:53:19.543Z,4.00
2022-11-05T12:54:19.357Z,2.50
2022-11-05T12:55:19.332Z,2.60
2022-11-05T12:56:19.322Z,2.50
2022-11-05T12:57:19.310Z,3.20
2022-11-05T12:58:19.303Z,2.50
2022-11-05T12:59:19.281Z,2.70
2022-11-05T13:00:19.292Z,3.00
2022-11-05T13:01:19.399Z,2.60
2022-11-05T13:02:19.330Z,3.20
2022-11-05T13:03:19.253Z,3.40
2022-11-05T13:04:19.244Z,2.90
2022-11-05T13:05:19.218Z,2.70
2022-11-05T13:06:19.225Z,2.70
2022-11-05T13:07:19.195Z,3.10
2022-11-05T13:08:19.207Z,2.50
2022-11-05T13:09:19.177Z,3.70
2022-11-05T13:10:19.178Z,2.70
2022-11-05T13:11:19.163Z,2.60
2022-11-05T13:12:19.155Z,3.30
2022-11-05T13:13:19.135Z,2.50
2022-11-05T13:14:19.134Z,3.30
2022-11-05T13:15:19.119Z,3.00
2022-11-05T13:16:19.121Z,3.20
2022-11-05T13:17:19.115Z,3.20
2022-11-05T13:18:19.084Z,2.50